• Join FlightAware (Why Join?)
  • Login
  • US Flag 
Rudolph Flight #1: Arrived! 
11:00PM EST


 

Airport Tracker/Info


-or-


 

Live Flight TrackerFlight Track Log ✈ SWA1245 ✈ 30-Apr-2013 ✈ KLAX - KSTL

Flight Track Log - Related Links

Times and Time Zones

All times are in EDT time to prevent confusion due to time zone crossing. See the SWA1245 flight status page for this flight to view local times or setup timezone preferences in your user account.

Time Position Orientation Groundspeed Altitude Reporting Facility
EDT Latitude Longitude Course Direction KTS MPH feet Rate Location/Type
12:14PM 33.9383 -118.5275 264° West 222 255 3,500  Level Los Angeles Center
12:15PM 33.9125 -118.5936 245° Southwest 244 281 6,200 2,460 Climbing Los Angeles Center
12:16PM 33.8717 -118.5264 126° Southeast 288 331 8,700 2,340 Climbing Los Angeles Center
12:17PM 33.9219 -118.4531 50° Northeast 287 330 11,100 2,160 Climbing Los Angeles Center
12:18PM 33.9736 -118.3619 56° Northeast 294 338 13,600 1,800 Climbing Los Angeles Center
12:19PM 34.0403 -118.2447 56° Northeast 351 404 15,200 1,800 Climbing Los Angeles Center
12:20PM 34.0975 -118.1431 56° Northeast 363 418 17,400 1,800 Climbing Los Angeles Center
12:21PM 34.1569 -118.0381 56° Northeast 377 434 19,000 1,680 Climbing Los Angeles Center
12:22PM 34.2181 -117.9300 56° Northeast 388 447 21,000 1,740 Climbing Los Angeles Center
12:23PM 34.2786 -117.8217 56° Northeast 390 449 22,700 1,500 Climbing Los Angeles Center
12:24PM 34.3411 -117.7094 56° Northeast 400 460 24,100 1,560 Climbing Los Angeles Center
12:25PM 34.4167 -117.5728 56° Northeast 406 467 26,000 1,560 Climbing Los Angeles Center
12:26PM 34.4806 -117.4586 56° Northeast 409 471 27,400 1,500 Climbing Los Angeles Center
12:27PM 34.5436 -117.3444 56° Northeast 410 472 29,200 1,020 Climbing Los Angeles Center
12:28PM 34.6061 -117.2308 56° Northeast 406 467 29,600 540 Climbing Los Angeles Center
12:29PM 34.6733 -117.1092 56° Northeast 429 494 30,400 1,020 Climbing Los Angeles Center
12:30PM 34.7397 -116.9886 56° Northeast 429 494 31,800 1,200 Climbing Los Angeles Center
12:31PM 34.8183 -116.8442 56° Northeast 424 488 32,900 540 Climbing Los Angeles Center
12:32PM 34.8833 -116.7236 57° Northeast 426 490 33,000  Climbing Los Angeles Center
12:33PM 34.9497 -116.6014 56° Northeast 431 496 33,000  Level Los Angeles Center
12:34PM 35.0297 -116.4944 48° Northeast 431 496 33,000  Level Los Angeles Center
12:35PM 35.1122 -116.3892 46° Northeast 429 494 33,000  Level Los Angeles Center
12:36PM 35.1997 -116.2836 45° Northeast 428 493 33,000  Level Los Angeles Center
12:38PM 35.2967 -116.1594 46° Northeast 430 495 33,000  Level Los Angeles Center
12:39PM 35.3800 -116.0536 46° Northeast 432 497 33,000  Level Los Angeles Center
12:40PM 35.4672 -115.9481 45° Northeast 430 495 33,000  Level Los Angeles Center
12:41PM 35.5531 -115.8383 46° Northeast 434 499 33,000  Level Los Angeles Center
12:42PM 35.6361 -115.7308 46° Northeast 435 501 33,000  Level Los Angeles Center
12:43PM 35.7217 -115.6222 46° Northeast 439 505 33,000  Level Los Angeles Center
12:44PM 35.8081 -115.5103 46° Northeast 448 516 33,000  Level Los Angeles Center
12:45PM 35.9097 -115.3744 47° Northeast 451 519 33,000  Level Los Angeles Center
12:46PM 35.9511 -115.2258 71° East 460 529 33,000  Level Los Angeles Center
12:47PM 35.9833 -115.0767 75° East 457 526 33,000  Level Los Angeles Center
12:48PM 36.0142 -114.9231 76° East 462 532 33,000 60 Level Los Angeles Center
12:49PM 36.0442 -114.7708 76° East 460 529 33,200 600 Climbing Los Angeles Center
12:50PM 36.0800 -114.5878 76° East 458 527 34,300 840 Climbing Los Angeles Center
12:51PM 36.1114 -114.4381 75° East 454 522 35,000 300 Climbing Los Angeles Center
12:52PM 36.1406 -114.2864 77° East 456 525 35,000  Level Los Angeles Center
12:53PM 36.1706 -114.1353 76° East 454 522 35,000  Level Los Angeles Center
12:54PM 36.1994 -113.9836 77° East 454 522 35,000  Level Los Angeles Center
12:55PM 36.2289 -113.8322 76° East 454 522 35,000  Level Los Angeles Center
12:56PM 36.2636 -113.6497 77° East 455 524 35,000  Level Los Angeles Center
12:57PM 36.2933 -113.4972 76° East 455 524 35,000  Level Los Angeles Center
12:58PM 36.3214 -113.3442 77° East 456 525 35,000  Level Los Angeles Center
12:59PM 36.3517 -113.1811 77° East 456 525 35,000  Level Los Angeles Center
01:00PM 36.3794 -113.0297 77° East 454 522 35,000  Level Los Angeles Center
01:01PM 36.4072 -112.8789 77° East 452 520 35,000  Level Los Angeles Center
01:02PM 36.4353 -112.7261 77° East 455 524 35,000  Level Los Angeles Center
01:03PM 36.4689 -112.5422 77° East 457 526 35,000  Level Los Angeles Center
01:04PM 36.4953 -112.3919 78° East 452 520 35,000  Level Los Angeles Center
01:05PM 36.5231 -112.2394 77° East 454 522 35,000  Level Los Angeles Center
01:07PM 36.5500 -112.0867 78° East 455 524 35,000  Level Los Angeles Center
01:08PM 36.5767 -111.9328 78° East 456 525 35,000  Level Los Angeles Center
01:08PM 36.5986 -111.8094 77° East 457 526 35,000  Level Denver Center
01:09PM 36.6250 -111.6544 78° East 460 529 35,000  Level Denver Center
01:10PM 36.6525 -111.4989 78° East 462 532 35,000  Level Denver Center
01:11PM 36.6842 -111.3131 78° East 459 528 35,000  Level Denver Center
01:12PM 36.7097 -111.1572 78° East 460 529 35,000  Level Denver Center
01:13PM 36.7308 -111.0336 78° East 459 528 35,000  Level Denver Center
01:14PM 36.7608 -110.8472 79° East 459 528 35,000  Level Denver Center
01:16PM 36.7864 -110.6906 78° East 461 531 35,000  Level Denver Center
01:17PM 36.8128 -110.5339 78° East 463 533 35,000  Level Denver Center
01:18PM 36.8419 -110.3456 79° East 463 533 35,000  Level Denver Center
01:19PM 36.8675 -110.1872 79° East 466 536 35,000  Level Denver Center
01:20PM 36.8889 -110.0506 79° East 465 535 35,000  Level Denver Center
01:21PM 36.9172 -109.8739 79° East 465 535 35,000  Level Denver Center
01:22PM 36.9436 -109.6992 79° East 459 528 35,000  Level Denver Center
01:23PM 36.9672 -109.5492 79° East 459 528 35,000  Level Denver Center
01:24PM 36.9933 -109.3758 79° East 454 522 35,000  Level Denver Center
01:25PM 37.0158 -109.2261 79° East 456 525 35,000  Level Denver Center
01:26PM 37.0414 -109.0506 80° East 458 527 35,000  Level Denver Center
01:27PM 37.0639 -108.9011 79° East 456 525 35,000  Level Denver Center
01:28PM 37.0897 -108.7239 80° East 461 531 35,000  Level Denver Center
01:29PM 37.1111 -108.5739 80° East 458 527 35,000  Level Denver Center
01:30PM 37.1336 -108.4222 79° East 460 529 35,000  Level Denver Center
01:31PM 37.1589 -108.2456 80° East 460 529 35,000  Level Denver Center
01:32PM 37.1797 -108.0925 80° East 461 531 35,000  Level Denver Center
01:33PM 37.2042 -107.9161 80° East 460 529 35,000  Level Denver Center
01:34PM 37.2256 -107.7650 80° East 461 531 35,000  Level Denver Center
01:35PM 37.2472 -107.5883 81° East 459 528 35,000  Level Denver Center
01:36PM 37.2283 -107.4103 98° East 461 531 35,000  Level Denver Center
01:37PM 37.2008 -107.2347 101° East 459 528 35,000  Level Denver Center
01:38PM 37.1792 -107.0839 100° East 457 526 35,000  Level Denver Center
01:39PM 37.1275 -106.9194 111° Southeast 453 521 35,000  Level Denver Center
01:41PM 37.0769 -106.7814 115° Southeast 454 522 35,000  Level Denver Center
01:42PM 37.0172 -106.6233 115° Southeast 450 518 35,000  Level Denver Center
01:43PM 36.9694 -106.4858 113° Southeast 450 518 35,000  Level Denver Center
01:44PM 36.9789 -106.3389 85° East 446 513 35,000  Level Denver Center
01:45PM 37.0083 -106.1692 78° East 446 513 35,000  Level Denver Center
01:46PM 37.0319 -106.0244 78° East 445 512 35,000  Level Denver Center
01:47PM 37.0592 -105.8547 79° East 446 513 35,000  Level Denver Center
01:48PM 37.0839 -105.6925 79° East 446 513 35,000  Level Denver Center
01:49PM 37.1081 -105.5472 78° East 446 513 35,000  Level Denver Center
01:50PM 37.1339 -105.3761 79° East 448 516 35,000  Level Denver Center
01:51PM 37.1550 -105.2292 80° East 448 516 35,000  Level Denver Center
01:52PM 37.1817 -105.0592 79° East 446 513 35,000  Level Denver Center
01:53PM 37.2033 -104.9139 79° East 445 512 35,000  Level Denver Center
01:54PM 37.2242 -104.7689 80° East 443 510 35,000  Level Denver Center
01:55PM 37.2469 -104.6086 80° East 441 507 35,000  Level Denver Center
01:56PM 37.2653 -104.4803 80° East 441 507 35,000  Level Denver Center
01:57PM 37.2931 -104.2883 80° East 440 506 35,000  Level Denver Center
01:58PM 37.3128 -104.1450 80° East 439 505 35,000  Level Denver Center
01:59PM 37.3361 -103.9772 80° East 441 507 35,000  Level Denver Center
02:00PM 37.3567 -103.8336 80° East 443 510 35,000  Level Denver Center
02:01PM 37.3800 -103.6650 80° East 443 510 35,000  Level Denver Center
02:02PM 37.4000 -103.5206 80° East 442 509 35,000  Level Denver Center
02:03PM 37.4228 -103.3514 80° East 441 507 35,000  Level Denver Center
02:04PM 37.4422 -103.2061 80° East 441 507 35,000  Level Denver Center
02:05PM 37.4650 -103.0372 80° East 440 506 35,000  Level Denver Center
02:06PM 37.4839 -102.8894 81° East 443 510 35,000  Level Denver Center
02:07PM 37.5039 -102.7425 80° East 444 511 35,000  Level Denver Center
02:08PM 37.5253 -102.5711 81° East 444 511 35,000  Level Denver Center
02:09PM 37.5469 -102.3986 81° East 442 509 35,000  Level Denver Center
02:10PM 37.5617 -102.2758 81° East 443 510 35,000  Level Denver Center
02:11PM 37.5864 -102.0797 81° East 443 510 35,000  Level Denver Center
02:13PM 37.6042 -101.9322 81° East 445 512 35,000  Level Denver Center
02:14PM 37.6222 -101.7844 81° East 444 511 35,000  Level Denver Center
02:15PM 37.6497 -101.5619 81° East 446 513 35,000  Level Kansas City Center
02:16PM 37.6675 -101.4131 81° East 448 516 35,000  Level Kansas City Center
02:17PM 37.6875 -101.2392 82° East 448 516 35,000  Level Kansas City Center
02:18PM 37.7047 -101.0861 82° East 448 516 35,000  Level Kansas City Center
02:19PM 37.7222 -100.9303 82° East 448 516 35,000  Level Kansas City Center
02:20PM 37.7414 -100.7728 81° East 450 518 35,000  Level Kansas City Center
02:21PM 37.7581 -100.6161 82° East 451 519 35,000  Level Kansas City Center
02:22PM 37.7775 -100.4317 82° East 448 516 35,000  Level Kansas City Center
02:23PM 37.7947 -100.2822 82° East 449 517 35,000  Level Kansas City Center
02:24PM 37.8131 -100.1067 82° East 451 519 35,000  Level Kansas City Center
02:25PM 37.8283 -99.9569 83° East 449 517 35,000  Level Kansas City Center
02:26PM 37.8458 -99.7825 83° East 448 516 35,000  Level Kansas City Center
02:27PM 37.8619 -99.6342 82° East 446 513 35,000  Level Kansas City Center
02:28PM 37.8767 -99.4803 83° East 448 516 35,000  Level Kansas City Center
02:29PM 37.8931 -99.3244 82° East 447 514 35,000  Level Kansas City Center
02:30PM 37.9075 -99.1692 83° East 444 511 35,000  Level Kansas City Center
02:31PM 37.9258 -98.9825 83° East 445 512 35,000  Level Kansas City Center
02:32PM 37.9414 -98.8269 83° East 446 513 35,000  Level Kansas City Center
02:34PM 37.9564 -98.6711 83° East 445 512 35,000  Level Kansas City Center
02:35PM 37.9708 -98.5161 83° East 445 512 35,000  Level Kansas City Center
02:36PM 37.9856 -98.3589 83° East 447 514 35,000  Level Kansas City Center
02:37PM 38.0003 -98.2031 83° East 443 510 35,000  Level Kansas City Center
02:38PM 38.0158 -98.0178 84° East 443 510 35,000  Level Kansas City Center
02:39PM 38.0278 -97.8600 84° East 446 513 35,000  Level Kansas City Center
02:40PM 38.0436 -97.6931 83° East 446 513 35,000  Level Kansas City Center
02:41PM 38.0569 -97.5383 84° East 444 511 35,000  Level Kansas City Center
02:42PM 38.0706 -97.3800 84° East 443 510 35,000  Level Kansas City Center
02:43PM 38.0831 -97.2242 84° East 444 511 35,000  Level Kansas City Center
02:44PM 38.0958 -97.0678 84° East 444 511 35,000  Level Kansas City Center
02:45PM 38.1075 -96.9131 84° East 442 509 35,000  Level Kansas City Center
02:46PM 38.1194 -96.7581 84° East 441 507 35,000  Level Kansas City Center
02:47PM 38.1342 -96.5725 84° East 441 507 35,000  Level Kansas City Center
02:48PM 38.1450 -96.4189 85° East 437 503 35,000  Level Kansas City Center
02:49PM 38.1567 -96.2647 84° East 439 505 35,000  Level Kansas City Center
02:50PM 38.1686 -96.0931 85° East 437 503 35,000  Level Kansas City Center
02:51PM 38.1794 -95.9481 85° East 434 499 35,000  Level Kansas City Center
02:52PM 38.1911 -95.7772 85° East 437 503 35,000  Level Kansas City Center
02:53PM 38.2014 -95.6314 85° East 434 499 35,000  Level Kansas City Center
02:54PM 38.2106 -95.4847 85° East 435 501 35,000  Level Kansas City Center
02:55PM 38.2217 -95.3142 85° East 436 502 35,000  Level Kansas City Center
02:56PM 38.2317 -95.1653 85° East 439 505 35,000  Level Kansas City Center
02:57PM 38.2425 -94.9969 85° East 435 501 35,000  Level Kansas City Center
02:58PM 38.2503 -94.8522 86° East 433 498 35,000  Level Kansas City Center
02:59PM 38.2614 -94.6819 85° East 433 498 35,000  Level Kansas City Center
03:00PM 38.2722 -94.5128 85° East 432 497 35,000  Level Kansas City Center
03:01PM 38.2914 -94.3711 80° East 430 495 35,000 -300 Level Kansas City Center
03:03PM 38.3197 -94.2053 78° East 427 491 34,400 -960 Descending Kansas City Center
03:04PM 38.3425 -94.0536 79° East 427 491 33,100 -1,140 Descending Kansas City Center
03:05PM 38.3656 -93.9094 78° East 419 482 32,100 -960 Descending Kansas City Center
03:06PM 38.3906 -93.7667 77° East 413 475 31,200 -540 Descending Kansas City Center
03:07PM 38.4119 -93.6194 79° East 419 482 31,000 -120 Descending Kansas City Center
03:08PM 38.4347 -93.4700 79° East 425 489 31,000  Level Kansas City Center
03:09PM 38.4583 -93.3181 79° East 431 496 31,000  Level Kansas City Center
03:10PM 38.4825 -93.1681 78° East 431 496 31,000  Level Kansas City Center
03:11PM 38.5114 -92.9886 78° East 429 494 31,000  Level Kansas City Center
03:12PM 38.5331 -92.8394 79° East 426 490 31,000  Level Kansas City Center
03:13PM 38.5550 -92.6894 79° East 426 490 31,000  Level Kansas City Center
03:14PM 38.5778 -92.5381 79° East 428 493 31,000 -720 Level Kansas City Center
03:15PM 38.5997 -92.3869 79° East 430 495 29,600 -1,860 Descending Kansas City Center
03:16PM 38.6208 -92.2361 80° East 428 493 27,200 -2,220 Descending Kansas City Center
03:17PM 38.6425 -92.0942 79° East 416 479 25,100 -2,040 Descending Kansas City Center
03:18PM 38.6625 -91.9547 80° East 407 468 23,000 -2,280 Descending Kansas City Center
03:19PM 38.6858 -91.7850 80° East 402 463 20,400 -2,280 Descending Kansas City Center
03:20PM 38.6931 -91.6483 86° East 393 452 18,300 -2,100 Descending Kansas City Center
03:21PM 38.6925 -91.5139 90° East 382 440 16,100 -2,040 Descending Kansas City Center
03:22PM 38.6925 -91.3833 90° East 370 426 14,200 -1,920 Descending Kansas City Center
03:23PM 38.6942 -91.2639 89° East 356 410 12,200 -1,860 Descending Kansas City Center
03:24PM 38.6939 -91.1428 90° East 346 398 10,400 -1,500 Descending Kansas City Center
03:25PM 38.7325 -91.0194 68° East 318 366 9,200 -1,200 Descending Kansas City Center
03:26PM 38.7586 -90.9156 72° East 307 353 8,000 -1,260 Descending Kansas City Center
03:27PM 38.7844 -90.8150 72° East 301 346 6,600 -1,440 Descending Kansas City Center
03:28PM 38.8169 -90.7233 66° East 288 331 5,100 -1,440 Descending Kansas City Center
03:29PM 38.8547 -90.6319 62° Northeast 288 331 3,700 -1,020 Descending Kansas City Center
03:30PM 38.8369 -90.5472 105° East 269 310 3,000 -720 Descending Kansas City Center
03:31PM 38.8033 -90.4803 123° Southeast 241 277 2,300 -840 Descending Kansas City Center
03:32PM 38.7750 -90.4222 122° Southeast 214 246 1,300 -840 Descending Kansas City Center
03:34PM 38.7547 -90.3794 121° Southeast 167 192 600 -720 Descending Kansas City Center
03:36PM 38.7487 -90.3700 180° South  Level Estimated